Time;durP1;ratioP1;P1;durP2;ratioP2;P2;SDS_P1;SDS_P2;PMS_P1;PMS_P2;Temp;Humidity;BMP_temperature;BMP_pressure;BME280_temperature;BME280_humidity;BME280_pressure;Samples;Min_cycle;Max_cycle;Signal;HPM_P1;HPM_P2
2023/03/22 00:02:30;;;;;;;13.37;6.97;;;;;;;8.21;100.00;100518.31;6100256;28;20263;-72
2023/03/22 00:05:26;;;;;;;14.50;7.22;;;;;;;8.15;100.00;100503.03;6101200;28;20397;-73
2023/03/22 00:08:21;;;;;;;15.30;7.22;;;;;;;8.07;100.00;100500.25;6098629;28;20083;-73
2023/03/22 00:11:18;;;;;;;16.33;7.50;;;;;;;8.09;100.00;100506.22;6099678;28;20037;-72
2023/03/22 00:14:13;;;;;;;21.55;8.07;;;;;;;8.00;100.00;100492.00;6099712;28;20029;-74
2023/03/22 00:17:08;;;;;;;18.80;7.80;;;;;;;8.06;100.00;100499.41;6099869;28;20076;-73
2023/03/22 00:20:07;;;;;;;17.27;7.77;;;;;;;8.06;100.00;100502.03;6100876;28;20025;-73
2023/03/22 00:23:02;;;;;;;16.38;8.43;;;;;;;7.97;100.00;100489.63;6099651;28;20097;-73
2023/03/22 00:25:58;;;;;;;17.10;8.30;;;;;;;8.03;100.00;100504.09;6099806;28;20025;-73
2023/03/22 00:28:53;;;;;;;17.95;8.10;;;;;;;7.93;100.00;100488.25;6100193;28;20634;-73
2023/03/22 00:31:50;;;;;;;18.30;8.43;;;;;;;8.01;100.00;100485.78;6099804;28;20048;-73
2023/03/22 00:34:46;;;;;;;18.33;8.40;;;;;;;8.07;100.00;100501.06;6100185;28;20039;-73
2023/03/22 00:37:41;;;;;;;16.73;7.63;;;;;;;8.11;100.00;100502.47;6100018;28;20040;-72
2023/03/22 00:40:36;;;;;;;17.20;8.67;;;;;;;8.02;100.00;100476.84;6100074;28;20719;-73
2023/03/22 00:43:31;;;;;;;16.77;8.00;;;;;;;8.06;100.00;100494.13;6099385;28;20037;-73
2023/03/22 00:46:27;;;;;;;19.20;8.30;;;;;;;8.03;100.00;100483.81;6100164;28;20075;-73
2023/03/22 00:49:24;;;;;;;23.07;10.07;;;;;;;8.00;100.00;100481.44;6099657;28;20413;-72
2023/03/22 00:52:20;;;;;;;23.30;9.07;;;;;;;8.05;100.00;100486.31;6099207;28;20112;-73
2023/03/22 00:55:15;;;;;;;22.38;8.93;;;;;;;7.97;100.00;100484.34;6099420;28;20032;-74
2023/03/22 00:58:11;;;;;;;22.27;10.55;;;;;;;8.01;100.00;100480.50;6099162;28;20039;-73
2023/03/22 01:01:06;;;;;;;23.57;10.13;;;;;;;7.93;100.00;100467.13;6099562;28;20032;-73
2023/03/22 01:04:03;;;;;;;23.40;10.00;;;;;;;7.90;100.00;100456.84;6099018;28;20261;-75
2023/03/22 01:07:00;;;;;;;22.65;9.85;;;;;;;7.98;100.00;100472.84;6099037;28;20112;-74
2023/03/22 01:09:56;;;;;;;23.00;11.43;;;;;;;7.88;100.00;100456.13;6099278;28;20116;-72
2023/03/22 01:12:52;;;;;;;20.70;9.23;;;;;;;7.88;100.00;100450.84;6098711;28;20521;-73
2023/03/22 01:15:51;;;;;;;21.25;9.52;;;;;;;7.83;100.00;100450.41;6098972;28;20029;-72
2023/03/22 01:18:46;;;;;;;22.17;10.38;;;;;;;7.81;100.00;100452.34;6099009;28;20029;-72
2023/03/22 01:21:41;;;;;;;20.93;10.70;;;;;;;7.75;100.00;100452.88;6099103;28;20090;-72
2023/03/22 01:24:37;;;;;;;25.30;10.70;;;;;;;7.79;100.00;100444.59;6098652;28;20040;-72
2023/03/22 01:27:32;;;;;;;21.95;9.82;;;;;;;7.82;100.00;100451.41;6098771;28;20032;-73
2023/03/22 01:30:29;;;;;;;20.20;8.13;;;;;;;7.73;100.00;100450.41;6098878;28;20275;-73
2023/03/22 01:33:24;;;;;;;21.90;9.88;;;;;;;7.73;100.00;100434.56;6098475;28;20263;-72
2023/03/22 01:36:19;;;;;;;25.47;11.23;;;;;;;7.89;100.00;100449.88;6098463;28;20036;-72
2023/03/22 01:39:15;;;;;;;20.33;9.40;;;;;;;7.88;100.00;100437.63;6098960;28;20025;-72
2023/03/22 01:42:13;;;;;;;22.90;9.48;;;;;;;7.94;100.00;100438.91;6098048;28;20143;-73
2023/03/22 01:45:15;;;;;;;20.92;9.68;;;;;;;8.01;100.00;100435.59;6098430;28;20036;-73
2023/03/22 01:48:18;;;;;;;24.85;10.45;;;;;;;8.09;100.00;100433.13;6098267;28;20043;-73
2023/03/22 01:51:23;;;;;;;25.00;9.77;;;;;;;8.14;100.00;100420.31;6097222;28;20082;-72
2023/03/22 01:54:33;;;;;;;20.88;8.70;;;;;;;8.16;100.00;100425.47;6097878;28;20054;-73
2023/03/22 01:57:28;;;;;;;22.42;8.90;;;;;;;8.17;100.00;100425.34;6097900;28;20520;-72
2023/03/22 02:00:24;;;;;;;20.97;9.10;;;;;;;8.22;100.00;100420.47;6098348;28;20051;-72
2023/03/22 02:03:27;;;;;;;22.43;9.23;;;;;;;8.26;100.00;100432.41;6095920;28;20035;-72
2023/03/22 02:06:22;;;;;;;23.13;9.98;;;;;;;8.30;100.00;100423.28;6097870;28;20279;-72
2023/03/22 02:09:20;;;;;;;24.25;8.95;;;;;;;8.23;100.00;100416.03;6096957;28;20036;-73
2023/03/22 02:12:38;;;;;;;19.92;9.15;;;;;;;8.28;100.00;100419.97;6097066;28;20078;-72
2023/03/22 02:15:47;;;;;;;24.15;9.63;;;;;;;8.40;100.00;100419.81;6098191;28;20031;-72
2023/03/22 02:19:29;;;;;;;20.70;9.45;;;;;;;8.29;100.00;100394.34;6093093;28;20032;-72
2023/03/22 02:22:51;;;;;;;25.25;10.40;;;;;;;8.43;100.00;100419.53;6084354;28;20094;-74
2023/03/22 02:26:11;;;;;;;20.90;10.15;;;;;;;8.40;100.00;100420.63;6078476;28;20091;-72
2023/03/22 02:29:16;;;;;;;21.08;9.65;;;;;;;8.48;100.00;100414.69;6096589;28;20041;-75
2023/03/22 02:32:47;;;;;;;18.85;8.82;;;;;;;8.42;100.00;100402.00;6096002;28;20059;-72
2023/03/22 02:36:00;;;;;;;24.20;10.40;;;;;;;8.27;100.00;100386.59;6096621;28;20067;-74
2023/03/22 02:39:14;;;;;;;28.30;10.68;;;;;;;8.55;100.00;100406.03;6097474;28;20035;-73
2023/03/22 02:42:58;;;;;;;23.05;9.88;;;;;;;8.56;100.00;100415.63;6096899;28;20465;-74
2023/03/22 02:46:09;;;;;;;23.92;10.27;;;;;;;8.36;100.00;100388.41;6091658;28;20098;-72
2023/03/22 02:49:17;;;;;;;25.65;11.27;;;;;;;8.40;100.00;100386.28;6097223;28;20418;-73
2023/03/22 02:52:19;;;;;;;;;;;;;;;8.51;100.00;100403.78;6097345;28;20058;-73
2023/03/22 02:55:23;;;;;;;24.13;11.57;;;;;;;8.54;100.00;100393.78;6112823;28;19912;-73
2023/03/22 02:58:24;;;;;;;25.98;10.38;;;;;;;8.50;100.00;100396.88;6097046;28;20032;-74
2023/03/22 03:01:24;;;;;;;27.17;11.45;;;;;;;8.51;100.00;100394.06;6097514;28;20036;-73
2023/03/22 03:04:27;;;;;;;24.17;10.35;;;;;;;8.44;100.00;100382.41;6095281;28;20151;-74
2023/03/22 03:07:25;;;;;;;22.73;11.07;;;;;;;8.46;100.00;100374.31;6097267;28;20047;-73
2023/03/22 03:10:21;;;;;;;31.40;11.55;;;;;;;8.54;100.00;100387.66;6095308;28;20446;-73
2023/03/22 03:13:18;;;;;;;29.75;12.05;;;;;;;8.58;100.00;100397.00;6095493;28;20033;-74
2023/03/22 03:16:16;;;;;;;21.38;10.10;;;;;;;8.55;100.00;100390.19;6096882;28;20033;-73
2023/03/22 03:19:20;;;;;;;25.60;10.68;;;;;;;8.53;100.00;100375.44;6096080;28;20025;-73
2023/03/22 03:22:47;;;;;;;23.27;11.68;;;;;;;8.62;100.00;100387.78;6095353;28;20051;-73
2023/03/22 03:25:56;;;;;;;22.92;9.80;;;;;;;8.51;100.00;100372.94;6097327;28;20434;-74
2023/03/22 03:29:03;;;;;;;24.33;10.55;;;;;;;8.64;100.00;100385.88;6096145;28;20037;-73
2023/03/22 03:32:15;;;;;;;22.10;9.93;;;;;;;8.65;100.00;100391.00;6099821;28;20455;-73
2023/03/22 03:35:21;;;;;;;22.67;11.43;;;;;;;8.62;100.00;100388.63;6099998;28;20041;-73
2023/03/22 03:38:20;;;;;;;23.10;9.73;;;;;;;8.58;100.00;100373.22;6101449;28;20495;-73
2023/03/22 03:41:18;;;;;;;21.88;10.27;;;;;;;8.58;100.00;100378.50;6100061;28;20091;-72
2023/03/22 03:44:14;;;;;;;25.58;10.60;;;;;;;8.60;100.00;100369.44;6099694;28;20064;-73
2023/03/22 03:47:10;;;;;;;25.23;10.88;;;;;;;8.69;100.00;100375.69;6100217;28;20044;-73
2023/03/22 03:50:06;;;;;;;19.05;8.95;;;;;;;8.67;100.00;100372.38;6099994;28;20468;-74
2023/03/22 03:53:04;;;;;;;20.15;9.18;;;;;;;8.66;100.00;100366.25;6099474;28;20036;-73
2023/03/22 03:55:59;;;;;;;23.45;9.98;;;;;;;8.71;100.00;100373.72;6101022;28;20039;-73
2023/03/22 03:58:55;;;;;;;23.33;10.03;;;;;;;8.64;100.00;100368.16;6101023;28;20037;-73
2023/03/22 04:01:51;;;;;;;23.30;9.98;;;;;;;8.69;100.00;100371.25;6100285;28;20032;-74
2023/03/22 04:04:46;;;;;;;26.95;10.57;;;;;;;8.64;100.00;100368.16;6100864;28;20432;-73
2023/03/22 04:07:41;;;;;;;22.77;10.03;;;;;;;8.63;100.00;100355.94;6100911;28;20042;-73
2023/03/22 04:10:37;;;;;;;20.50;9.40;;;;;;;8.66;100.00;100360.13;6100646;28;20033;-73
2023/03/22 04:13:32;;;;;;;28.93;11.27;;;;;;;8.52;100.00;100352.63;6100339;28;20048;-72
2023/03/22 04:16:27;;;;;;;25.03;10.63;;;;;;;8.43;100.00;100353.47;6100505;28;20025;-72
2023/03/22 04:19:23;;;;;;;26.77;11.13;;;;;;;8.48;100.00;100365.28;6099101;28;20106;-73
2023/03/22 04:22:18;;;;;;;26.27;10.30;;;;;;;8.43;100.00;100348.19;6099776;28;20099;-73
2023/03/22 04:25:16;;;;;;;27.63;10.47;;;;;;;8.35;100.00;100341.81;6100349;28;20268;-72
2023/03/22 04:28:12;;;;;;;24.52;10.55;;;;;;;8.35;100.00;100339.16;6100124;28;20396;-73
2023/03/22 04:31:07;;;;;;;21.02;9.13;;;;;;;8.40;100.00;100346.66;6100253;28;20036;-73
2023/03/22 04:34:05;;;;;;;23.60;10.73;;;;;;;8.30;100.00;100336.13;6099420;28;20033;-71
2023/03/22 04:37:01;;;;;;;24.38;10.90;;;;;;;8.29;100.00;100334.44;6100024;28;20036;-73
2023/03/22 04:39:57;;;;;;;29.00;11.88;;;;;;;8.42;100.00;100341.25;6099681;28;20041;-72
2023/03/22 04:42:56;;;;;;;25.63;10.27;;;;;;;8.46;100.00;100332.03;6099243;28;20069;-72
2023/03/22 04:45:53;;;;;;;25.92;10.65;;;;;;;8.42;100.00;100338.59;6099760;28;20064;-72
2023/03/22 04:48:48;;;;;;;21.13;10.00;;;;;;;8.44;100.00;100334.00;6099616;28;20400;-73
2023/03/22 04:51:44;;;;;;;23.80;10.02;;;;;;;8.43;100.00;100333.16;6099665;28;20044;-73
2023/03/22 04:54:40;;;;;;;25.20;11.70;;;;;;;8.35;100.00;100320.66;6099123;28;20024;-72
2023/03/22 04:57:35;;;;;;;22.50;10.02;;;;;;;8.44;100.00;100326.91;6099422;28;20361;-73
2023/03/22 05:00:31;;;;;;;24.70;9.32;;;;;;;8.44;100.00;100331.38;6099666;28;20373;-72
2023/03/22 05:03:26;;;;;;;28.03;11.40;;;;;;;8.35;100.00;100325.94;6099006;28;20033;-72
2023/03/22 05:06:21;;;;;;;27.30;10.77;;;;;;;8.33;100.00;100319.16;6099591;28;20029;-72
2023/03/22 05:09:16;;;;;;;26.00;10.93;;;;;;;8.44;100.00;100324.28;6098855;28;20054;-72
2023/03/22 05:12:12;;;;;;;25.80;10.90;;;;;;;8.47;100.00;100329.28;6098112;28;20275;-73
2023/03/22 05:15:07;;;;;;;24.03;10.53;;;;;;;8.40;100.00;100322.06;6099654;28;20055;-73
2023/03/22 05:18:03;;;;;;;23.63;10.10;;;;;;;8.44;100.00;100321.63;6099013;28;20037;-73
2023/03/22 05:20:59;;;;;;;19.50;9.00;;;;;;;8.54;100.00;100337.47;6099143;28;20117;-72
2023/03/22 05:23:56;;;;;;;24.48;9.82;;;;;;;8.54;100.00;100334.81;6097969;28;20299;-73
2023/03/22 05:26:52;;;;;;;21.63;9.65;;;;;;;8.61;100.00;100331.47;6098520;28;20033;-73
2023/03/22 05:29:48;;;;;;;21.80;10.15;;;;;;;8.57;100.00;100322.16;6098875;28;20043;-73
2023/03/22 05:32:43;;;;;;;27.15;11.98;;;;;;;8.71;100.00;100342.00;6098464;28;20029;-72
2023/03/22 05:35:40;;;;;;;24.80;9.73;;;;;;;8.52;100.00;100297.13;6099373;28;20131;-73
2023/03/22 05:38:36;;;;;;;26.75;10.57;;;;;;;8.68;100.00;100339.66;6101981;28;20086;-73
2023/03/22 05:41:32;;;;;;;23.48;10.45;;;;;;;8.63;100.00;100318.09;6097063;28;20032;-71
2023/03/22 05:44:28;;;;;;;25.35;10.60;;;;;;;8.66;100.00;100334.53;6097610;28;20151;-73
2023/03/22 05:47:23;;;;;;;22.45;9.13;;;;;;;8.75;100.00;100343.41;6097872;28;20044;-72
2023/03/22 05:50:21;;;;;;;24.07;9.77;;;;;;;8.77;100.00;100337.00;6098353;28;20094;-74
2023/03/22 05:53:16;;;;;;;20.67;9.25;;;;;;;8.70;100.00;100324.47;6097360;28;20032;-73
2023/03/22 05:56:12;;;;;;;22.90;10.70;;;;;;;8.75;100.00;100333.63;6091634;28;20041;-72
2023/03/22 05:59:08;;;;;;;23.73;10.77;;;;;;;8.73;100.00;100330.31;6095265;28;20033;-72
2023/03/22 06:02:03;;;;;;;20.37;9.60;;;;;;;8.74;100.00;100329.34;6097632;28;20048;-73
2023/03/22 06:04:58;;;;;;;19.20;8.10;;;;;;;8.79;100.00;100318.34;6098247;28;20271;-73
2023/03/22 06:07:53;;;;;;;19.93;9.40;;;;;;;8.90;100.00;100334.03;6098320;28;20033;-73
2023/03/22 06:10:50;;;;;;;20.87;9.13;;;;;;;8.86;100.00;100314.13;6098178;28;20060;-73
2023/03/22 06:13:45;;;;;;;23.35;9.57;;;;;;;8.89;100.00;100309.38;6097224;28;20040;-73
2023/03/22 06:16:41;;;;;;;23.93;10.37;;;;;;;8.95;100.00;100310.63;6097360;28;20033;-72
2023/03/22 06:19:36;;;;;;;27.48;11.10;;;;;;;9.00;100.00;100311.00;6097755;28;20032;-72
2023/03/22 06:22:32;;;;;;;23.93;10.50;;;;;;;9.02;100.00;100309.06;6095817;28;20064;-72
2023/03/22 06:25:27;;;;;;;28.10;11.02;;;;;;;9.06;99.97;100299.84;6095306;28;20031;-72
2023/03/22 06:28:22;;;;;;;20.50;9.80;;;;;;;9.02;100.00;100293.22;6095000;28;20124;-72
2023/03/22 06:31:18;;;;;;;23.67;9.47;;;;;;;8.95;100.00;100263.03;6095737;28;20678;-72
2023/03/22 06:34:13;;;;;;;18.17;8.77;;;;;;;9.19;99.47;100295.06;6094994;28;20267;-73
2023/03/22 06:37:08;;;;;;;20.23;9.73;;;;;;;9.23;99.38;100306.19;6095291;28;20370;-72
2023/03/22 06:40:04;;;;;;;20.53;9.67;;;;;;;9.27;99.25;100302.25;6096933;28;20083;-74
2023/03/22 06:42:59;;;;;;;22.90;10.82;;;;;;;9.25;99.16;100299.75;6095926;28;20407;-72
2023/03/22 06:45:56;;;;;;;22.40;9.10;;;;;;;9.27;98.86;100294.31;6100807;28;20121;-72
2023/03/22 06:48:51;;;;;;;24.77;11.55;;;;;;;9.23;98.72;100293.78;6097024;28;20468;-73
2023/03/22 06:51:46;;;;;;;20.65;9.48;;;;;;;9.26;99.13;100296.16;6097163;28;20048;-72
2023/03/22 06:54:42;;;;;;;20.67;10.47;;;;;;;9.31;98.79;100298.34;6097098;28;20037;-73
2023/03/22 06:57:37;;;;;;;22.33;10.50;;;;;;;9.33;98.94;100304.31;6096959;28;20484;-72
2023/03/22 07:00:33;;;;;;;22.57;9.13;;;;;;;9.41;98.76;100302.59;6096674;28;20388;-72
2023/03/22 07:03:28;;;;;;;21.13;10.15;;;;;;;9.47;98.48;100311.75;6098225;28;20032;-71
2023/03/22 07:06:24;;;;;;;25.50;12.63;;;;;;;9.43;98.33;100287.38;6102346;28;20040;-72
2023/03/22 07:09:19;;;;;;;21.77;9.13;;;;;;;9.43;98.13;100282.09;6102086;28;20116;-71
2023/03/22 07:12:14;;;;;;;25.60;12.23;;;;;;;9.56;97.68;100298.47;6101410;28;20057;-71
2023/03/22 07:15:10;;;;;;;25.60;10.23;;;;;;;9.62;97.92;100281.13;6100124;28;20619;-72
2023/03/22 07:18:06;;;;;;;22.55;11.63;;;;;;;9.70;96.89;100293.63;6098107;28;20032;-72
2023/03/22 07:21:02;;;;;;;23.60;10.65;;;;;;;9.70;96.75;100262.69;6102036;28;20082;-71
2023/03/22 07:23:57;;;;;;;26.23;11.07;;;;;;;9.85;97.04;100297.41;6101000;28;20411;-72
2023/03/22 07:26:53;;;;;;;20.60;9.50;;;;;;;9.79;96.70;100271.53;6100597;28;20048;-73
2023/03/22 07:29:48;;;;;;;28.47;10.27;;;;;;;9.93;96.40;100278.94;6101658;28;20578;-72
2023/03/22 07:32:43;;;;;;;22.30;10.30;;;;;;;9.88;96.52;100286.50;6100800;28;20124;-71
2023/03/22 07:35:39;;;;;;;22.57;9.90;;;;;;;9.87;96.50;100284.84;6101213;28;20029;-72
2023/03/22 07:38:34;;;;;;;22.58;10.40;;;;;;;9.86;96.30;100299.91;6101397;28;20279;-72
2023/03/22 07:41:29;;;;;;;22.33;9.70;;;;;;;9.96;96.59;100291.88;6101110;28;20125;-72
2023/03/22 07:44:25;;;;;;;21.70;11.10;;;;;;;9.94;95.33;100280.63;6100533;28;20033;-73
2023/03/22 07:47:21;;;;;;;21.25;9.50;;;;;;;10.07;95.90;100281.88;6100661;28;20036;-73
2023/03/22 07:50:16;;;;;;;23.88;10.40;;;;;;;10.27;95.11;100282.56;6101507;28;20452;-71
2023/03/22 07:53:12;;;;;;;23.40;12.95;;;;;;;10.49;93.39;100279.38;6099991;28;20041;-72
2023/03/22 07:56:07;;;;;;;19.50;9.67;;;;;;;10.84;92.61;100280.25;6101075;28;20112;-72
2023/03/22 07:59:03;;;;;;;20.40;8.65;;;;;;;11.12;90.80;100268.44;6100720;28;20837;-72
2023/03/22 08:01:58;;;;;;;20.00;8.38;;;;;;;11.63;88.82;100278.84;6093760;28;20029;-73
2023/03/22 08:04:54;;;;;;;21.33;9.30;;;;;;;11.61;87.13;100270.22;6098420;28;20036;-73
2023/03/22 08:07:50;;;;;;;23.17;9.15;;;;;;;11.75;86.34;100272.28;6100404;28;20431;-72
2023/03/22 08:10:49;;;;;;;17.17;8.18;;;;;;;12.00;85.50;100266.97;6100617;28;20060;-73
2023/03/22 08:13:45;;;;;;;20.20;8.52;;;;;;;11.83;85.75;100272.28;6099910;28;20086;-73
2023/03/22 08:16:42;;;;;;;14.60;7.10;;;;;;;12.10;84.52;100276.44;6099387;28;20037;-73
2023/03/22 08:19:38;;;;;;;18.17;8.65;;;;;;;12.08;84.36;100267.81;6100674;28;20039;-73
2023/03/22 08:22:35;;;;;;;20.73;9.50;;;;;;;11.85;84.19;100259.66;6099635;28;20028;-72
2023/03/22 08:25:32;;;;;;;19.60;9.20;;;;;;;11.82;85.62;100267.16;6100204;28;20045;-72
2023/03/22 08:28:27;;;;;;;19.38;8.40;;;;;;;12.01;84.96;100260.69;6100296;28;20395;-72
2023/03/22 08:31:23;;;;;;;21.67;8.50;;;;;;;12.41;84.09;100268.63;6099864;28;20029;-73
2023/03/22 08:34:18;;;;;;;17.85;8.57;;;;;;;12.32;83.20;100251.00;6099223;28;20480;-73
2023/03/22 08:37:13;;;;;;;18.08;7.78;;;;;;;12.38;83.39;100263.63;6099264;28;20104;-73
2023/03/22 08:40:10;;;;;;;17.60;8.23;;;;;;;12.61;81.72;100251.25;6099924;28;20492;-72
2023/03/22 08:43:05;;;;;;;15.45;7.68;;;;;;;12.40;82.74;100257.13;6098502;28;20112;-72
2023/03/22 08:46:00;;;;;;;17.90;9.13;;;;;;;12.13;82.19;100224.78;6098783;28;20037;-72
2023/03/22 08:48:59;;;;;;;21.38;7.50;;;;;;;12.07;82.30;100228.94;6099303;28;20421;-73
2023/03/22 08:51:56;;;;;;;15.95;6.97;;;;;;;12.12;81.00;100210.66;6098429;28;20083;-72
2023/03/22 08:54:52;;;;;;;16.65;7.25;;;;;;;12.24;81.24;100235.91;6099289;28;20099;-72
2023/03/22 08:57:49;;;;;;;18.48;7.65;;;;;;;12.30;81.26;100234.41;6098697;28;20472;-72
2023/03/22 09:00:45;;;;;;;15.00;6.45;;;;;;;12.64;80.94;100221.66;6098575;28;20041;-73
2023/03/22 09:03:41;;;;;;;13.90;6.30;;;;;;;12.80;79.41;100234.91;6098285;28;20182;-73
2023/03/22 09:06:36;;;;;;;15.68;6.82;;;;;;;12.38;81.65;100205.97;6099008;28;20489;-72
2023/03/22 09:09:31;;;;;;;12.75;6.35;;;;;;;12.23;82.71;100214.81;6098970;28;20069;-73
2023/03/22 09:12:28;;;;;;;15.90;8.07;;;;;;;11.97;81.74;100208.84;6098142;28;20499;-72
2023/03/22 09:15:23;;;;;;;18.73;7.68;;;;;;;12.10;83.61;100209.16;6098776;28;20182;-72
2023/03/22 09:18:19;;;;;;;15.17;7.03;;;;;;;12.31;82.20;100212.13;6098131;28;20495;-72
2023/03/22 09:21:14;;;;;;;17.50;7.35;;;;;;;12.31;81.88;100198.84;6098463;28;20087;-72
2023/03/22 09:24:10;;;;;;;18.25;7.30;;;;;;;12.07;83.33;100201.50;6098079;28;20116;-72
2023/03/22 09:27:05;;;;;;;13.80;6.53;;;;;;;12.01;82.88;100191.59;6097520;28;20129;-72
2023/03/22 09:30:00;;;;;;;18.23;7.10;;;;;;;12.20;83.28;100201.84;6098694;28;20028;-73
2023/03/22 09:32:56;;;;;;;18.13;8.60;;;;;;;12.20;82.00;100202.66;6097479;28;20491;-72
2023/03/22 09:35:52;;;;;;;14.30;6.53;;;;;;;12.37;81.36;100188.34;6098174;28;20037;-73
2023/03/22 09:38:48;;;;;;;15.20;6.97;;;;;;;12.63;81.14;100193.44;6098230;28;20029;-72
2023/03/22 09:41:55;;;;;;;12.88;6.63;;;;;;;12.63;80.33;100168.66;6097501;28;20033;-73
2023/03/22 09:44:51;;;;;;;13.82;6.45;;;;;;;13.29;78.81;100190.28;6097314;28;20029;-72
2023/03/22 09:47:50;;;;;;;11.98;6.55;;;;;;;13.63;77.37;100179.22;6097837;28;20432;-73
2023/03/22 09:50:48;;;;;;;13.88;5.95;;;;;;;13.93;75.00;100167.63;6096916;28;20037;-72
2023/03/22 09:53:43;;;;;;;10.70;5.38;;;;;;;13.43;76.26;100167.38;6095923;28;20036;-73
2023/03/22 09:56:39;;;;;;;10.57;5.00;;;;;;;13.17;77.83;100164.25;6097877;28;20037;-73
2023/03/22 09:59:46;;;;;;;12.60;5.70;;;;;;;13.45;77.30;100155.53;6091231;28;20119;-73
2023/03/22 10:02:44;;;;;;;12.80;5.45;;;;;;;14.01;75.55;100156.06;6097481;28;20028;-73
2023/03/22 10:05:47;;;;;;;11.55;4.95;;;;;;;14.34;72.76;100161.91;6101267;28;20181;-72
2023/03/22 10:08:49;;;;;;;10.45;4.85;;;;;;;14.44;71.16;100157.13;6097536;28;20029;-73
2023/03/22 10:12:05;;;;;;;11.82;4.70;;;;;;;14.34;70.80;100153.91;6097003;28;20029;-73
2023/03/22 10:15:23;;;;;;;13.18;4.85;;;;;;;14.29;71.76;100149.09;6097342;28;20091;-72
2023/03/22 10:18:22;;;;;;;12.65;4.95;;;;;;;14.38;70.79;100156.00;6087464;28;20132;-72
2023/03/22 10:21:18;;;;;;;7.88;3.97;;;;;;;14.64;70.86;100150.22;6095987;28;20428;-73
2023/03/22 10:24:21;;;;;;;9.20;4.00;;;;;;;14.39;68.01;100114.16;6095381;28;20033;-73
2023/03/22 10:27:19;;;;;;;5.70;2.60;;;;;;;14.39;67.81;100140.84;6092384;28;20116;-72
2023/03/22 10:30:15;;;;;;;8.02;3.10;;;;;;;14.25;68.46;100151.31;6096900;28;20079;-72
2023/03/22 10:33:13;;;;;;;7.85;3.58;;;;;;;14.17;68.84;100137.22;6096212;28;20476;-73
2023/03/22 10:36:12;;;;;;;8.85;3.80;;;;;;;14.32;70.57;100131.94;6095968;28;20071;-73
2023/03/22 10:39:26;;;;;;;8.10;3.17;;;;;;;14.14;69.32;100138.41;6095531;28;20499;-72
2023/03/22 10:42:26;;;;;;;8.82;2.95;;;;;;;13.93;70.24;100140.97;6096025;28;20031;-73
2023/03/22 10:45:23;;;;;;;7.88;3.00;;;;;;;14.23;68.29;100134.66;6107868;28;20044;-73
2023/03/22 10:48:41;;;;;;;6.57;2.90;;;;;;;14.18;67.66;100128.22;6094660;28;20123;-72
2023/03/22 10:52:08;;;;;;;8.38;2.50;;;;;;;14.68;66.31;100136.31;6095642;28;20179;-73
2023/03/22 10:55:05;;;;;;;;;;;;;;;14.97;65.88;100129.25;6084027;28;20094;-72
2023/03/22 10:58:17;;;;;;;8.38;3.70;;;;;;;15.27;63.37;100142.31;6096907;28;20420;-73
2023/03/22 11:01:24;;;;;;;8.32;2.90;;;;;;;15.36;64.15;100133.16;6096201;28;20037;-74
2023/03/22 11:04:20;;;;;;;5.85;2.13;;;;;;;15.22;62.40;100150.06;6095738;28;20032;-73
2023/03/22 11:07:30;;;;;;;4.05;2.42;;;;;;;15.09;61.63;100144.59;6095846;28;20052;-73
2023/03/22 11:10:31;;;;;;;5.80;2.50;;;;;;;14.93;62.58;100149.31;6096660;28;20049;-73
2023/03/22 11:13:26;;;;;;;6.38;1.83;;;;;;;15.54;62.74;100143.44;6095420;28;20037;-73
2023/03/22 11:16:22;;;;;;;7.10;2.20;;;;;;;15.36;61.69;100127.81;6095504;28;20475;-74
2023/03/22 11:19:26;;;;;;;5.80;1.77;;;;;;;15.33;62.02;100130.88;6096239;28;20528;-73
2023/03/22 11:22:33;;;;;;;4.63;2.30;;;;;;;15.41;61.91;100114.69;6084056;28;20044;-73
2023/03/22 11:25:31;;;;;;;5.70;1.95;;;;;;;15.57;62.92;100126.19;6096531;28;20043;-73
2023/03/22 11:28:41;;;;;;;5.15;2.22;;;;;;;15.76;61.60;100110.28;6094737;28;20032;-73
2023/03/22 11:32:18;;;;;;;5.13;1.70;;;;;;;16.53;60.44;100113.69;6095810;28;20378;-73
2023/03/22 11:35:21;;;;;;;6.22;1.95;;;;;;;16.50;58.00;100089.97;6075922;28;20048;-72
2023/03/22 11:38:36;;;;;;;6.28;2.10;;;;;;;16.15;58.87;100109.75;6096441;28;20037;-74
2023/03/22 11:41:35;;;;;;;5.80;1.90;;;;;;;15.62;59.24;100095.19;6096823;28;20029;-72
2023/03/22 11:44:34;;;;;;;4.65;1.95;;;;;;;15.33;59.52;100104.16;6094113;28;20048;-73
2023/03/22 11:47:34;;;;;;;4.38;1.65;;;;;;;15.54;59.59;100095.34;6095178;28;20400;-73
2023/03/22 11:50:30;;;;;;;;;;;;;;;15.93;58.72;100100.97;6095569;28;20523;-73
2023/03/22 11:53:26;;;;;;;4.75;1.40;;;;;;;15.77;58.28;100095.91;6099109;28;19917;-72
2023/03/22 11:56:27;;;;;;;6.25;2.00;;;;;;;15.88;59.52;100094.53;6095201;28;20029;-73
2023/03/22 11:59:23;;;;;;;5.22;2.22;;;;;;;16.09;57.01;100110.53;6106607;28;20044;-72
2023/03/22 12:02:26;;;;;;;6.47;2.50;;;;;;;15.95;55.63;100098.91;6101262;28;20496;-74
2023/03/22 12:05:27;;;;;;;4.57;1.63;;;;;;;15.85;56.30;100109.13;6100429;28;20507;-73
2023/03/22 12:08:43;;;;;;;4.45;1.60;;;;;;;15.74;56.74;100116.84;6098390;28;20063;-73
2023/03/22 12:11:40;;;;;;;3.20;1.60;;;;;;;15.10;56.18;100098.19;6099967;28;20024;-73
2023/03/22 12:14:56;;;;;;;4.50;1.63;;;;;;;15.18;56.96;100126.59;6013374;28;159840;-73
2023/03/22 12:17:57;;;;;;;4.60;1.60;;;;;;;15.19;58.98;100126.41;6037853;28;20389;-73
2023/03/22 12:20:55;;;;;;;6.07;1.50;;;;;;;15.30;58.02;100125.91;6047887;28;20498;-73
2023/03/22 12:23:53;;;;;;;3.97;1.60;;;;;;;15.36;57.79;100119.78;6047913;28;20053;-72
2023/03/22 12:26:48;;;;;;;6.47;1.70;;;;;;;15.61;57.20;100114.09;6048921;28;20041;-73
2023/03/22 12:29:54;;;;;;;4.38;1.58;;;;;;;15.53;57.24;100092.84;6046128;28;20080;-72
2023/03/22 12:33:03;;;;;;;5.60;1.70;;;;;;;15.54;57.62;100102.53;6050044;28;20037;-72
2023/03/22 12:36:04;;;;;;;3.55;1.45;;;;;;;15.43;57.57;100104.66;6043676;28;20111;-73
2023/03/22 12:39:00;;;;;;;5.25;1.50;;;;;;;15.23;58.08;100098.31;6044054;28;20033;-72
2023/03/22 12:42:00;;;;;;;3.20;1.70;;;;;;;15.24;58.40;100110.66;6041417;28;20529;-73
2023/03/22 12:44:58;;;;;;;3.83;1.50;;;;;;;15.48;57.63;100102.28;6045996;28;20038;-73
2023/03/22 12:48:10;;;;;;;5.22;2.17;;;;;;;15.63;56.62;100104.00;6042472;28;20541;-73
2023/03/22 12:51:08;;;;;;;4.70;1.55;;;;;;;15.71;56.29;100111.91;6047669;28;20041;-73
2023/03/22 12:54:04;;;;;;;5.63;1.73;;;;;;;15.68;56.48;100097.06;6042009;28;20069;-73
2023/03/22 12:56:59;;;;;;;6.82;1.70;;;;;;;15.65;56.85;100096.66;6040076;28;20047;-73
2023/03/22 12:59:59;;;;;;;5.78;1.52;;;;;;;15.61;56.48;100100.72;6042598;28;20044;-73
2023/03/22 13:02:59;;;;;;;6.60;1.80;;;;;;;15.65;57.61;100099.31;6047084;28;20033;-73
2023/03/22 13:06:04;;;;;;;3.55;1.55;;;;;;;15.56;57.60;100087.09;6047758;28;20038;-73
2023/03/22 13:09:14;;;;;;;5.63;1.95;;;;;;;15.20;58.26;100088.00;6048080;28;20116;-72
2023/03/22 13:12:15;;;;;;;4.78;1.63;;;;;;;15.25;59.04;100087.41;6042815;28;20042;-73
2023/03/22 13:15:31;;;;;;;5.18;2.42;;;;;;;15.48;58.79;100086.25;6045714;28;20053;-73
2023/03/22 13:18:36;;;;;;;3.88;1.20;;;;;;;15.44;58.52;100076.06;6042896;28;20445;-74
2023/03/22 13:21:32;;;;;;;5.03;1.90;;;;;;;15.14;58.78;100083.41;6048083;28;20042;-73
2023/03/22 13:24:30;;;;;;;3.40;1.48;;;;;;;15.10;59.97;100087.50;6046848;28;20068;-74
2023/03/22 13:27:34;;;;;;;4.03;2.35;;;;;;;15.04;58.35;100063.38;6047921;28;20464;-73
2023/03/22 13:30:35;;;;;;;4.63;1.58;;;;;;;14.99;58.62;100077.31;6042141;28;20050;-73
2023/03/22 13:33:33;;;;;;;4.90;1.58;;;;;;;15.11;58.43;100051.75;6045394;28;20436;-73
2023/03/22 13:36:30;;;;;;;5.18;1.83;;;;;;;14.90;58.15;100070.44;6045638;28;20477;-73
2023/03/22 13:39:33;;;;;;;3.20;1.58;;;;;;;14.92;58.86;100063.06;6047380;28;20045;-74
2023/03/22 13:42:35;;;;;;;3.85;1.50;;;;;;;15.05;58.31;100063.22;6047100;28;20060;-73
2023/03/22 13:45:32;;;;;;;6.63;1.63;;;;;;;14.96;58.16;100053.66;6045608;28;20056;-74
2023/03/22 13:48:45;;;;;;;2.28;1.27;;;;;;;15.01;58.40;100069.09;6046750;28;20044;-73